createdAt,value
2018-04-27T00:00:08.763Z,6.60
2018-04-27T00:02:36.299Z,6.27
2018-04-27T00:05:03.954Z,6.83
2018-04-27T00:07:31.488Z,6.70
2018-04-27T00:09:59.025Z,7.17
2018-04-27T00:12:26.690Z,6.80
2018-04-27T00:14:54.227Z,7.23
2018-04-27T00:17:21.776Z,6.73
2018-04-27T00:19:49.367Z,6.87
2018-04-27T00:22:16.911Z,6.93
2018-04-27T00:24:44.435Z,7.40
2018-04-27T00:27:12.376Z,6.87
2018-04-27T00:29:39.936Z,7.10
2018-04-27T00:32:07.497Z,7.40
2018-04-27T00:34:35.371Z,7.10
2018-04-27T00:37:02.912Z,7.33
2018-04-27T00:39:30.458Z,7.23
2018-04-27T00:41:58.026Z,7.33
2018-04-27T00:44:25.554Z,7.37
2018-04-27T00:46:53.082Z,7.50
2018-04-27T00:49:20.802Z,7.40
2018-04-27T00:51:48.335Z,7.30
2018-04-27T00:54:15.862Z,7.60
2018-04-27T00:56:43.422Z,7.23
2018-04-27T00:59:10.978Z,7.50
2018-04-27T01:01:38.512Z,7.67
2018-04-27T01:04:06.193Z,7.70
2018-04-27T01:06:33.737Z,7.70
2018-04-27T01:09:01.279Z,8.20
2018-04-27T01:11:29.141Z,8.30
2018-04-27T01:13:56.667Z,7.73
2018-04-27T01:16:24.199Z,9.60
2018-04-27T01:18:52.053Z,8.87
2018-04-27T01:21:19.620Z,8.87
2018-04-27T01:23:47.151Z,8.10
2018-04-27T01:26:14.721Z,9.13
2018-04-27T01:28:42.259Z,8.30
2018-04-27T01:31:09.890Z,9.13
2018-04-27T01:33:37.531Z,8.80
2018-04-27T01:36:05.934Z,9.27
2018-04-27T01:38:33.461Z,9.67
2018-04-27T01:41:01.145Z,9.13
2018-04-27T01:43:28.684Z,8.97
2018-04-27T01:45:56.222Z,8.60
2018-04-27T01:48:24.083Z,8.50
2018-04-27T01:50:51.619Z,8.07
2018-04-27T01:53:19.191Z,7.83
2018-04-27T01:55:46.759Z,8.10
2018-04-27T01:58:14.291Z,7.40
2018-04-27T02:00:41.846Z,6.93
2018-04-27T02:03:09.547Z,7.07
2018-04-27T02:05:37.081Z,6.93
2018-04-27T02:08:04.647Z,7.77
2018-04-27T02:10:32.237Z,6.73
2018-04-27T02:12:59.792Z,7.17
2018-04-27T02:15:27.350Z,7.30
2018-04-27T02:17:55.073Z,7.93
2018-04-27T02:20:22.625Z,7.67
2018-04-27T02:22:50.189Z,8.43
2018-04-27T02:25:17.907Z,8.40
2018-04-27T02:27:45.435Z,7.13
2018-04-27T02:30:13.112Z,7.57
2018-04-27T02:32:40.781Z,7.10
2018-04-27T02:35:08.306Z,7.67
2018-04-27T02:37:35.857Z,8.07
2018-04-27T02:40:03.445Z,9.17
2018-04-27T02:42:30.987Z,8.87
2018-04-27T02:44:58.519Z,8.77
2018-04-27T02:47:26.246Z,9.23
2018-04-27T02:49:53.782Z,8.20
2018-04-27T02:52:21.314Z,9.60
2018-04-27T02:54:48.856Z,9.17
2018-04-27T02:57:16.392Z,9.90
2018-04-27T02:59:43.950Z,9.77
2018-04-27T03:02:11.504Z,9.73
2018-04-27T03:04:39.080Z,10.30
2018-04-27T03:07:06.670Z,10.30
2018-04-27T03:09:34.227Z,10.07
2018-04-27T03:12:01.790Z,10.17
2018-04-27T03:14:29.461Z,10.70
2018-04-27T03:16:56.993Z,9.63
2018-04-27T03:19:24.546Z,10.07
2018-04-27T03:21:52.221Z,9.20
2018-04-27T03:24:19.753Z,9.50
2018-04-27T03:26:47.315Z,10.10
2018-04-27T03:29:14.900Z,9.93
2018-04-27T03:31:42.437Z,10.07
2018-04-27T03:34:09.980Z,9.40
2018-04-27T03:36:37.693Z,9.70
2018-04-27T03:39:05.266Z,9.63
2018-04-27T03:41:32.848Z,9.63
2018-04-27T03:44:00.568Z,8.20
2018-04-27T03:46:28.091Z,7.77
2018-04-27T03:48:55.639Z,7.83
2018-04-27T03:51:23.496Z,7.40
2018-04-27T03:53:51.047Z,8.13
2018-04-27T03:56:18.605Z,8.47
2018-04-27T03:58:46.341Z,8.10
2018-04-27T04:01:25.500Z,8.10
2018-04-27T04:04:04.723Z,7.20
2018-04-27T04:06:32.255Z,7.53
2018-04-27T04:08:59.783Z,7.40
2018-04-27T04:11:27.360Z,6.70
2018-04-27T04:13:54.908Z,6.40
2018-04-27T04:16:22.454Z,6.37
2018-04-27T04:18:50.189Z,6.80
2018-04-27T04:21:17.729Z,6.23
2018-04-27T04:23:45.283Z,6.40
2018-04-27T04:26:13.146Z,6.63
2018-04-27T04:28:40.679Z,6.53
2018-04-27T04:31:08.228Z,7.10
2018-04-27T04:33:35.823Z,6.57
2018-04-27T04:36:03.364Z,6.60
2018-04-27T04:38:30.914Z,5.90
2018-04-27T04:40:58.501Z,6.10
2018-04-27T04:43:26.039Z,5.63
2018-04-27T04:45:53.567Z,5.73
2018-04-27T04:48:21.292Z,6.20
2018-04-27T04:50:48.835Z,5.80
2018-04-27T04:53:16.371Z,5.77
2018-04-27T04:55:44.095Z,5.93
2018-04-27T04:58:11.651Z,6.13
2018-04-27T05:00:39.198Z,5.13
2018-04-27T05:03:06.820Z,5.10
2018-04-27T05:05:34.386Z,5.07
2018-04-27T05:08:01.965Z,4.90
2018-04-27T05:10:29.562Z,6.13
2018-04-27T05:12:57.108Z,10.23
2018-04-27T05:15:24.646Z,6.23
2018-04-27T05:17:52.397Z,6.77
2018-04-27T05:20:19.402Z,6.33
2018-04-27T05:22:46.940Z,6.33
2018-04-27T05:25:14.583Z,7.17
2018-04-27T05:27:42.145Z,7.40
2018-04-27T05:30:09.681Z,7.10
2018-04-27T05:32:37.279Z,6.40
2018-04-27T05:35:04.820Z,5.10
2018-04-27T05:37:32.378Z,6.27
2018-04-27T05:40:00.172Z,7.10
2018-04-27T05:42:27.777Z,5.20
2018-04-27T05:44:55.341Z,5.77
2018-04-27T05:47:23.050Z,7.33
2018-04-27T05:49:50.637Z,7.30
2018-04-27T05:52:18.170Z,6.27
2018-04-27T05:54:45.717Z,5.57
2018-04-27T05:57:13.260Z,5.60
2018-04-27T05:59:40.840Z,5.67
2018-04-27T06:02:08.392Z,5.40
2018-04-27T06:04:36.017Z,5.33
2018-04-27T06:07:03.626Z,5.13
2018-04-27T06:09:31.245Z,5.80
2018-04-27T06:11:58.793Z,4.93
2018-04-27T06:14:26.380Z,5.40
2018-04-27T06:16:53.919Z,5.10
2018-04-27T06:19:21.480Z,5.83
2018-04-27T06:21:49.208Z,5.80
2018-04-27T06:24:16.790Z,5.50
2018-04-27T06:26:44.336Z,6.13
2018-04-27T06:29:12.208Z,6.00
2018-04-27T06:31:39.782Z,6.00
2018-04-27T06:34:07.340Z,7.87
2018-04-27T06:36:34.918Z,6.53
2018-04-27T06:39:02.460Z,6.20
2018-04-27T06:41:30.053Z,5.97
2018-04-27T06:43:57.676Z,8.43
2018-04-27T06:46:25.254Z,6.40
2018-04-27T06:48:52.800Z,5.70
2018-04-27T06:51:20.568Z,5.90
2018-04-27T06:53:48.131Z,5.60
2018-04-27T06:56:15.732Z,5.87
2018-04-27T06:58:43.639Z,5.83
2018-04-27T07:01:11.203Z,5.83
2018-04-27T07:03:38.791Z,5.90
2018-04-27T07:06:06.394Z,5.93
2018-04-27T07:08:33.988Z,5.07
2018-04-27T07:11:01.577Z,6.30
2018-04-27T07:13:29.196Z,6.17
2018-04-27T07:15:56.760Z,6.63
2018-04-27T07:18:24.306Z,6.57
2018-04-27T07:20:52.172Z,6.67
2018-04-27T07:23:19.721Z,5.80
2018-04-27T07:25:47.388Z,6.33
2018-04-27T07:28:14.948Z,5.73
2018-04-27T07:30:42.518Z,5.90
2018-04-27T07:33:10.094Z,5.50
2018-04-27T07:35:38.029Z,5.70
2018-04-27T07:38:05.607Z,5.67
2018-04-27T07:40:33.197Z,6.37
2018-04-27T07:43:00.820Z,6.07
2018-04-27T07:45:28.394Z,6.20
2018-04-27T07:47:55.960Z,5.93
2018-04-27T07:50:23.578Z,6.40
2018-04-27T07:52:51.149Z,6.23
2018-04-27T07:55:18.757Z,6.33
2018-04-27T07:57:46.329Z,5.57
2018-04-27T08:00:13.928Z,6.80
2018-04-27T08:02:41.493Z,7.67
2018-04-27T08:05:09.172Z,16.13
2018-04-27T08:07:36.757Z,6.53
2018-04-27T08:10:04.352Z,6.73
2018-04-27T08:12:31.959Z,7.37
2018-04-27T08:14:59.544Z,7.60
2018-04-27T08:17:27.120Z,8.27
2018-04-27T08:19:55.048Z,8.07
2018-04-27T08:22:22.731Z,7.73
2018-04-27T08:24:50.312Z,7.67
2018-04-27T08:27:18.165Z,7.30
2018-04-27T08:29:45.758Z,6.93
2018-04-27T08:32:13.348Z,7.63
2018-04-27T08:34:41.009Z,7.40
2018-04-27T08:37:08.562Z,7.30
2018-04-27T08:39:36.112Z,7.53
2018-04-27T08:42:03.712Z,7.67
2018-04-27T08:44:31.282Z,13.00
2018-04-27T08:46:58.845Z,8.87
2018-04-27T08:49:26.454Z,9.00
2018-04-27T08:51:54.046Z,8.00
2018-04-27T08:54:21.634Z,7.90
2018-04-27T08:56:49.377Z,7.43
2018-04-27T08:59:16.968Z,9.07
2018-04-27T09:01:44.526Z,7.90
2018-04-27T09:04:12.276Z,7.50
2018-04-27T09:06:39.859Z,8.40
2018-04-27T09:09:07.422Z,8.00
2018-04-27T09:11:35.034Z,8.60
2018-04-27T09:14:02.603Z,7.60
2018-04-27T09:16:30.160Z,8.20
2018-04-27T09:18:57.737Z,7.53
2018-04-27T09:21:25.335Z,8.00
2018-04-27T09:23:52.900Z,7.87
2018-04-27T09:26:20.729Z,8.03
2018-04-27T09:28:48.305Z,8.63
2018-04-27T09:31:15.879Z,8.37
2018-04-27T09:33:43.469Z,7.43
2018-04-27T09:36:11.028Z,6.93
2018-04-27T09:38:38.580Z,6.57
2018-04-27T09:41:06.198Z,7.17
2018-04-27T09:43:33.799Z,7.23
2018-04-27T09:46:01.396Z,6.53
2018-04-27T09:48:29.038Z,7.67
2018-04-27T09:50:56.633Z,7.87
2018-04-27T09:53:24.205Z,7.30
2018-04-27T09:55:51.804Z,6.50
2018-04-27T09:58:19.397Z,7.87
2018-04-27T10:00:46.999Z,8.47
2018-04-27T10:03:14.621Z,7.63
2018-04-27T10:05:42.218Z,6.70
2018-04-27T10:08:09.820Z,7.90
2018-04-27T10:10:37.548Z,7.70
2018-04-27T10:13:05.135Z,7.73
2018-04-27T10:15:32.689Z,7.37
2018-04-27T10:18:00.272Z,7.93
2018-04-27T10:20:27.901Z,7.20
2018-04-27T10:22:55.430Z,7.40
2018-04-27T10:25:23.153Z,7.63
2018-04-27T10:27:50.699Z,7.47
2018-04-27T10:30:18.286Z,7.23
2018-04-27T10:32:45.858Z,7.43
2018-04-27T10:35:13.396Z,9.10
2018-04-27T10:37:40.963Z,10.13
2018-04-27T10:40:08.592Z,10.80
2018-04-27T10:42:36.127Z,8.63
2018-04-27T10:45:03.744Z,7.97
2018-04-27T10:47:31.673Z,8.73
2018-04-27T10:49:59.305Z,7.77
2018-04-27T10:52:26.883Z,8.37
2018-04-27T10:54:54.470Z,7.80
2018-04-27T10:57:22.044Z,7.97
2018-04-27T10:59:49.808Z,8.17
2018-04-27T11:02:17.388Z,7.90
2018-04-27T11:04:44.975Z,8.83
2018-04-27T11:07:12.600Z,8.87
2018-04-27T11:09:40.302Z,8.40
2018-04-27T11:12:07.796Z,8.53
2018-04-27T11:14:35.437Z,8.43
2018-04-27T11:17:03.007Z,8.23
2018-04-27T11:19:30.606Z,8.07
2018-04-27T11:21:58.207Z,8.87
2018-04-27T11:24:25.858Z,8.30
2018-04-27T11:26:53.437Z,9.03
2018-04-27T11:29:21.000Z,9.63
2018-04-27T11:31:48.536Z,8.73
2018-04-27T11:34:16.104Z,9.63
2018-04-27T11:36:43.715Z,9.03
2018-04-27T11:39:11.280Z,8.23
2018-04-27T11:41:38.828Z,9.33
2018-04-27T11:44:06.411Z,9.60
2018-04-27T11:46:34.081Z,8.90
2018-04-27T11:49:01.678Z,7.73
2018-04-27T11:51:29.559Z,8.23
2018-04-27T11:53:57.112Z,8.00
2018-04-27T11:56:24.700Z,7.83
2018-04-27T11:58:52.605Z,9.30
2018-04-27T12:01:20.200Z,8.40
2018-04-27T12:03:47.862Z,6.70
2018-04-27T12:06:15.456Z,7.33
2018-04-27T12:08:43.025Z,8.63
2018-04-27T12:11:10.626Z,8.07
2018-04-27T12:13:38.406Z,8.47
2018-04-27T12:16:06.010Z,7.63
2018-04-27T12:18:33.608Z,8.03
2018-04-27T12:21:01.184Z,7.87
2018-04-27T12:23:28.723Z,7.03
2018-04-27T12:25:56.316Z,7.87
2018-04-27T12:28:23.988Z,7.60
2018-04-27T12:30:51.599Z,7.30
2018-04-27T12:33:19.095Z,6.50
2018-04-27T12:35:46.772Z,7.43
2018-04-27T12:38:14.369Z,7.07
2018-04-27T12:40:41.954Z,6.90
2018-04-27T12:43:09.606Z,7.63
2018-04-27T12:45:37.266Z,7.10
2018-04-27T12:48:04.840Z,6.70
2018-04-27T12:50:32.621Z,6.27
2018-04-27T12:53:00.214Z,6.80
2018-04-27T12:55:27.828Z,6.90
2018-04-27T12:57:55.576Z,6.27
2018-04-27T13:00:23.147Z,7.00
2018-04-27T13:02:50.695Z,6.77
2018-04-27T13:05:18.482Z,6.23
2018-04-27T13:07:46.067Z,6.50
2018-04-27T13:10:13.649Z,6.30
2018-04-27T13:12:42.224Z,6.23
2018-04-27T13:15:09.808Z,5.83
2018-04-27T13:17:37.398Z,6.57
2018-04-27T13:20:04.989Z,6.40
2018-04-27T13:22:32.543Z,6.37
2018-04-27T13:25:00.104Z,6.27
2018-04-27T13:27:27.691Z,6.23
2018-04-27T13:29:55.245Z,6.30
2018-04-27T13:32:22.785Z,6.17
2018-04-27T13:34:50.487Z,6.60
2018-04-27T13:37:18.099Z,5.87
2018-04-27T13:39:45.683Z,6.37
2018-04-27T13:42:13.336Z,5.80
2018-04-27T13:44:40.924Z,6.17
2018-04-27T13:47:08.502Z,6.47
2018-04-27T13:49:36.253Z,6.03
2018-04-27T13:52:03.823Z,6.00
2018-04-27T13:54:31.408Z,5.93
2018-04-27T13:56:59.189Z,7.00
2018-04-27T13:59:26.787Z,6.07
2018-04-27T14:01:54.368Z,6.30
2018-04-27T14:04:22.092Z,6.60
2018-04-27T14:06:49.662Z,6.03
2018-04-27T14:09:17.243Z,6.43
2018-04-27T14:11:45.012Z,6.83
2018-04-27T14:14:12.599Z,6.50
2018-04-27T14:16:40.200Z,5.77
2018-04-27T14:19:07.811Z,8.40
2018-04-27T14:21:35.391Z,6.20
2018-04-27T14:24:02.958Z,6.10
2018-04-27T14:26:30.549Z,7.00
2018-04-27T14:28:58.103Z,6.27
2018-04-27T14:31:25.650Z,6.20
2018-04-27T14:33:53.232Z,6.17
2018-04-27T14:36:20.799Z,7.23
2018-04-27T14:38:48.351Z,6.93
2018-04-27T14:41:15.955Z,6.50
2018-04-27T14:43:43.498Z,6.73
2018-04-27T14:46:11.043Z,6.40
2018-04-27T14:48:38.733Z,6.63
2018-04-27T14:51:06.360Z,6.60
2018-04-27T14:53:33.945Z,6.10
2018-04-27T14:56:01.536Z,6.90
2018-04-27T14:58:29.144Z,6.67
2018-04-27T15:00:57.069Z,6.77
2018-04-27T15:03:24.656Z,7.47
2018-04-27T15:05:52.243Z,7.03
2018-04-27T15:08:19.869Z,6.57
2018-04-27T15:10:47.465Z,6.30
2018-04-27T15:13:15.057Z,6.43
2018-04-27T15:15:42.875Z,6.93
2018-04-27T15:18:10.428Z,6.63
2018-04-27T15:20:38.008Z,7.00
2018-04-27T15:23:05.885Z,7.17
2018-04-27T15:25:33.437Z,7.20
2018-04-27T15:28:01.025Z,6.67
2018-04-27T15:30:28.922Z,7.60
2018-04-27T15:32:56.474Z,7.83
2018-04-27T15:35:24.064Z,7.07
2018-04-27T15:37:51.687Z,7.60
2018-04-27T15:40:19.265Z,6.30
2018-04-27T15:42:46.861Z,6.43
2018-04-27T15:45:14.513Z,6.20
2018-04-27T15:47:42.124Z,6.27
2018-04-27T15:50:09.732Z,7.07
2018-04-27T15:52:37.356Z,6.07
2018-04-27T15:55:04.908Z,6.60
2018-04-27T15:57:32.465Z,6.50
2018-04-27T16:00:00.095Z,6.83
2018-04-27T16:02:27.689Z,7.43
2018-04-27T16:04:55.279Z,7.50
2018-04-27T16:07:22.882Z,7.00
2018-04-27T16:09:50.455Z,7.87
2018-04-27T16:12:18.073Z,7.63
2018-04-27T16:14:45.988Z,7.10
2018-04-27T16:17:13.636Z,7.43
2018-04-27T16:19:41.225Z,11.27
2018-04-27T16:22:09.026Z,10.17
2018-04-27T16:24:36.661Z,8.53
2018-04-27T16:27:04.282Z,8.40
2018-04-27T16:29:32.051Z,8.00
2018-04-27T16:31:59.637Z,8.03
2018-04-27T16:34:27.233Z,8.10
2018-04-27T16:36:54.849Z,9.40
2018-04-27T16:39:22.450Z,9.43
2018-04-27T16:41:50.085Z,8.70
2018-04-27T16:44:17.980Z,8.60
2018-04-27T16:46:45.545Z,7.60
2018-04-27T16:49:13.098Z,8.73
2018-04-27T16:51:40.840Z,8.57
2018-04-27T16:54:08.416Z,8.70
2018-04-27T16:56:35.959Z,8.57
2018-04-27T16:59:03.573Z,9.27
2018-04-27T17:01:31.168Z,8.00
2018-04-27T17:03:58.742Z,9.30
2018-04-27T17:06:26.351Z,8.40
2018-04-27T17:08:53.931Z,9.97
2018-04-27T17:11:21.519Z,9.83
2018-04-27T17:13:49.169Z,9.00
2018-04-27T17:16:16.739Z,9.03
2018-04-27T17:18:44.334Z,9.47
2018-04-27T17:21:12.285Z,8.20
2018-04-27T17:23:39.877Z,9.10
2018-04-27T17:26:07.472Z,8.30
2018-04-27T17:28:35.141Z,8.47
2018-04-27T17:31:02.684Z,8.53
2018-04-27T17:33:30.268Z,9.70
2018-04-27T17:35:57.912Z,8.77
2018-04-27T17:38:25.504Z,9.13
2018-04-27T17:40:53.080Z,8.40
2018-04-27T17:43:20.879Z,8.80
2018-04-27T17:45:48.421Z,8.70
2018-04-27T17:48:16.042Z,8.43
2018-04-27T17:50:43.793Z,9.27
2018-04-27T17:53:11.364Z,9.30
2018-04-27T17:55:38.915Z,8.43
2018-04-27T17:58:06.799Z,8.70
2018-04-27T18:00:34.376Z,8.90
2018-04-27T18:03:03.470Z,9.03
2018-04-27T18:05:31.115Z,8.60
2018-04-27T18:07:58.659Z,9.67
2018-04-27T18:10:26.216Z,8.83
2018-04-27T18:12:53.903Z,8.40
2018-04-27T18:15:21.471Z,8.87
2018-04-27T18:17:49.065Z,8.00
2018-04-27T18:20:16.737Z,8.23
2018-04-27T18:22:44.313Z,8.83
2018-04-27T18:25:11.871Z,9.07
2018-04-27T18:27:39.507Z,8.87
2018-04-27T18:30:07.099Z,8.67
2018-04-27T18:32:34.672Z,8.43
2018-04-27T18:35:02.432Z,8.63
2018-04-27T18:37:30.026Z,8.70
2018-04-27T18:39:57.616Z,8.73
2018-04-27T18:42:25.477Z,8.80
2018-04-27T18:44:53.007Z,8.90
2018-04-27T18:47:20.587Z,8.63
2018-04-27T18:49:48.840Z,8.03
2018-04-27T18:52:16.447Z,8.20
2018-04-27T18:54:44.058Z,7.80
2018-04-27T18:57:11.885Z,8.40
2018-04-27T18:59:45.687Z,9.00
2018-04-27T19:02:13.435Z,7.57
2018-04-27T19:04:41.055Z,8.10
2018-04-27T19:07:08.664Z,8.03
2018-04-27T19:09:36.312Z,8.37
2018-04-27T19:12:03.913Z,8.50
2018-04-27T19:14:31.496Z,8.97
2018-04-27T19:16:59.124Z,8.87
2018-04-27T19:19:26.734Z,7.80
2018-04-27T19:21:54.312Z,8.80
2018-04-27T19:24:22.094Z,8.57
2018-04-27T19:26:49.720Z,8.97
2018-04-27T19:29:17.316Z,9.00
2018-04-27T19:31:45.058Z,9.10
2018-04-27T19:34:12.647Z,8.47
2018-04-27T19:36:40.235Z,9.23
2018-04-27T19:39:07.843Z,9.30
2018-04-27T19:41:35.413Z,9.83
2018-04-27T19:44:02.998Z,9.80
2018-04-27T19:46:30.800Z,9.80
2018-04-27T19:48:58.385Z,9.73
2018-04-27T19:51:26.020Z,9.00
2018-04-27T19:53:53.631Z,9.30
2018-04-27T19:56:21.213Z,10.07
2018-04-27T19:58:48.788Z,9.23
2018-04-27T20:01:16.568Z,10.03
2018-04-27T20:03:44.135Z,9.63
2018-04-27T20:06:11.726Z,8.97
2018-04-27T20:08:39.701Z,8.20
2018-04-27T20:11:07.408Z,8.70
2018-04-27T20:13:36.679Z,9.10
2018-04-27T20:16:04.642Z,9.80
2018-04-27T20:18:32.194Z,11.10
2018-04-27T20:20:59.782Z,10.70
2018-04-27T20:23:34.335Z,10.33
2018-04-27T20:26:05.800Z,9.73
2018-04-27T20:28:34.961Z,9.70
2018-04-27T20:31:02.629Z,9.23
2018-04-27T20:33:30.266Z,10.13
2018-04-27T20:35:58.508Z,10.20
2018-04-27T20:38:26.149Z,9.53
2018-04-27T20:40:53.739Z,10.07
2018-04-27T20:43:22.273Z,9.47
2018-04-27T20:45:49.903Z,10.57
2018-04-27T20:48:30.202Z,9.43
2018-04-27T20:51:13.548Z,9.70
2018-04-27T20:54:00.953Z,11.60
2018-04-27T20:56:29.223Z,9.87
2018-04-27T20:58:57.542Z,9.37
2018-04-27T21:01:26.074Z,10.30
2018-04-27T21:03:53.887Z,10.57
2018-04-27T21:06:21.467Z,10.87
2018-04-27T21:08:49.051Z,10.77
2018-04-27T21:11:16.959Z,10.80
2018-04-27T21:13:44.576Z,10.57
2018-04-27T21:16:12.176Z,11.27
2018-04-27T21:18:40.098Z,9.67
2018-04-27T21:21:07.701Z,10.07
2018-04-27T21:23:35.308Z,10.43
2018-04-27T21:26:02.956Z,11.00
2018-04-27T21:28:31.407Z,9.50
2018-04-27T21:30:58.991Z,10.13
2018-04-27T21:33:27.713Z,10.73
2018-04-27T21:35:56.180Z,9.80
2018-04-27T21:38:42.523Z,10.20
2018-04-27T21:44:19.204Z,9.77
2018-04-27T21:46:48.530Z,11.23
2018-04-27T21:49:17.847Z,10.80
2018-04-27T21:51:51.436Z,10.43
2018-04-27T21:54:19.788Z,10.73
2018-04-27T21:56:55.259Z,9.40
2018-04-27T22:02:27.764Z,10.27
2018-04-27T22:04:55.375Z,9.90
2018-04-27T22:07:25.279Z,9.20
2018-04-27T22:09:53.732Z,9.77
2018-04-27T22:12:21.304Z,10.63
2018-04-27T22:14:48.899Z,9.90
2018-04-27T22:17:34.159Z,11.13
2018-04-27T22:20:03.540Z,10.50
2018-04-27T22:22:31.120Z,10.33
2018-04-27T22:28:02.576Z,10.10
2018-04-27T22:30:33.080Z,10.53
2018-04-27T22:33:00.724Z,11.37
2018-04-27T22:35:35.848Z,10.20
2018-04-27T22:38:04.268Z,10.53
2018-04-27T22:40:36.753Z,10.87
2018-04-27T22:43:09.780Z,10.47
2018-04-27T22:45:38.335Z,12.07
2018-04-27T22:48:10.752Z,11.07
2018-04-27T22:53:48.718Z,10.67
2018-04-27T22:56:17.535Z,11.30
2018-04-27T22:58:45.151Z,11.40
2018-04-27T23:01:13.667Z,10.60
2018-04-27T23:03:43.444Z,11.07
2018-04-27T23:06:11.041Z,10.90
2018-04-27T23:08:41.245Z,11.00
2018-04-27T23:11:12.715Z,10.87
2018-04-27T23:13:47.103Z,11.23
2018-04-27T23:16:30.524Z,11.03
2018-04-27T23:18:58.094Z,11.63
2018-04-27T23:24:41.793Z,11.77
2018-04-27T23:27:09.399Z,12.93
2018-04-27T23:29:36.985Z,11.53
2018-04-27T23:32:04.546Z,12.67
2018-04-27T23:34:32.867Z,13.77
2018-04-27T23:37:00.463Z,12.43
2018-04-27T23:39:28.106Z,12.43
2018-04-27T23:41:55.828Z,11.23
2018-04-27T23:44:23.400Z,12.43
2018-04-27T23:46:50.998Z,12.60
2018-04-27T23:49:21.484Z,11.87
2018-04-27T23:51:49.066Z,12.40
2018-04-27T23:54:16.655Z,12.43
2018-04-27T23:56:47.959Z,12.80
2018-04-27T23:59:16.872Z,12.30
